Terminal Aerodrome Forecast
Issued by NWS

Home | Current Version | Previous Version | Text Only | Print | Product List | Glossary On
Versions: 1 2 3 4 5 6 7 8 9 10 11 12 13 14 15 16 17 18 19 20 21 22 23 24 25 26 27 28 29 30 31 32 33 34 35 36 37
700
FTUS45 KBOU 212331
TAFBJC
TAF
KBJC 212331Z 2200/2224 27014KT P6SM VCSH SCT090 BKN130
     FM220200 25008KT P6SM FEW100 BKN140
     FM221500 VRB05KT P6SM SCT140 SCT200
     FM222000 03007KT P6SM SCT090 BKN130 PROB30 2222/2224 VRB20G30KT
      -TSRA BKN090CB=

USA.gov is the U.S. government's official web portal to all federal, state and local government web resources and services.